Time;durP1;ratioP1;P1;durP2;ratioP2;P2;SDS_P1;SDS_P2;PMS_P1;PMS_P2;Temp;Humidity;BMP_temperature;BMP_pressure;BME280_temperature;BME280_humidity;BME280_pressure;Samples;Min_cycle;Max_cycle;Signal;HPM_P1;HPM_P2
2020/12/27 00:01:46;;;;;;;30.97;15.60;;;;;;;-5.74;81.22;93491.08;1779764;79;21135;-77
2020/12/27 00:04:16;;;;;;;27.97;15.60;;;;;;;-5.71;81.25;93490.50;1779786;78;21251;-75
2020/12/27 00:06:45;;;;;;;26.47;16.70;;;;;;;-5.72;81.05;93488.37;1784920;79;21173;-76
2020/12/27 00:09:13;;;;;;;23.33;13.40;;;;;;;-5.73;81.13;93484.70;1771914;78;21120;-75
2020/12/27 00:11:42;;;;;;;25.43;12.93;;;;;;;-5.69;81.40;93483.81;1798046;78;22214;-76
2020/12/27 00:14:10;;;;;;;20.20;11.53;;;;;;;-5.70;81.37;93484.91;1802157;79;21194;-76
2020/12/27 00:16:39;;;;;;;28.00;13.97;;;;;;;-5.73;81.35;93490.78;1813243;78;21215;-76
2020/12/27 00:19:07;;;;;;;54.17;29.47;;;;;;;-5.79;81.38;93491.16;1773788;79;21210;-76
2020/12/27 00:21:35;;;;;;;54.17;27.80;;;;;;;-5.81;81.31;93481.41;1833337;75;21156;-76
2020/12/27 00:24:03;;;;;;;49.07;25.57;;;;;;;-5.80;81.16;93481.64;1875596;76;22471;-77
2020/12/27 00:26:36;;;;;;;40.03;20.73;;;;;;;-5.84;81.11;93474.81;1761044;81;21222;-75
2020/12/27 00:29:07;;;;;;;;;;;;;;;-5.89;80.85;93478.34;1783078;79;21159;-77
2020/12/27 00:31:36;;;;;;;15.40;7.67;;;;;;;-6.01;80.82;93485.22;1792353;78;20266;-75
2020/12/27 00:34:04;;;;;;;11.10;5.60;;;;;;;-6.18;80.45;93493.67;1843855;76;21705;-77
2020/12/27 00:36:33;;;;;;;9.43;6.33;;;;;;;-6.36;80.74;93482.84;1829449;76;21196;-76
2020/12/27 00:39:06;;;;;;;9.17;6.43;;;;;;;-6.41;81.40;93479.48;1870358;76;21508;-75
2020/12/27 00:41:48;;;;;;;;;;;;;;;-6.39;81.69;93477.34;1826335;76;21175;-76
2020/12/27 00:44:17;;;;;;;23.93;11.60;;;;;;;-6.39;81.90;93482.09;1872684;76;20264;-77
2020/12/27 00:46:49;;;;;;;27.60;14.20;;;;;;;-6.39;81.82;93480.77;1783625;78;21168;-75
2020/12/27 00:49:19;;;;;;;22.83;10.53;;;;;;;-6.36;82.06;93476.23;1833280;77;21759;-75
2020/12/27 00:51:47;;;;;;;17.00;9.40;;;;;;;-6.31;82.00;93473.25;1863927;75;21218;-77
2020/12/27 00:54:16;;;;;;;12.20;7.07;;;;;;;-6.33;81.71;93477.49;1793453;78;21629;-76
2020/12/27 00:56:50;;;;;;;16.80;8.20;;;;;;;-6.33;81.72;93469.55;1858755;77;21111;-75
2020/12/27 00:59:19;;;;;;;19.23;10.23;;;;;;;-6.36;81.42;93470.94;1777081;78;21238;-74
2020/12/27 01:01:48;;;;;;;26.40;12.90;;;;;;;-6.35;81.39;93469.08;1829824;76;21377;-75
2020/12/27 01:04:30;;;;;;;20.27;9.10;;;;;;;-6.34;81.38;93470.64;1746916;79;21617;-75
2020/12/27 01:06:58;;;;;;;35.00;15.10;;;;;;;-6.34;81.20;93473.28;1786392;79;21738;-75
2020/12/27 01:09:27;;;;;;;59.67;29.73;;;;;;;-6.37;80.93;93464.59;1815710;76;21155;-75
2020/12/27 01:11:56;;;;;;;29.87;16.23;;;;;;;-6.44;80.85;93451.72;1877882;75;21146;-75
2020/12/27 01:14:25;;;;;;;26.10;14.87;;;;;;;-6.57;80.76;93457.75;1772946;80;22615;-74
2020/12/27 01:16:55;;;;;;;36.03;18.50;;;;;;;-6.71;81.04;93456.90;1797683;79;21223;-76
2020/12/27 01:19:25;;;;;;;28.27;15.40;;;;;;;-6.79;81.13;93455.69;1803997;79;21162;-74
2020/12/27 01:21:55;;;;;;;26.20;13.87;;;;;;;-6.86;81.42;93461.33;1817785;78;21152;-75
2020/12/27 01:24:25;;;;;;;20.73;10.37;;;;;;;-6.84;81.85;93463.70;1861196;75;21168;-75
2020/12/27 01:26:54;;;;;;;25.07;12.17;;;;;;;-6.83;81.66;93453.91;1839770;78;22606;-75
2020/12/27 01:29:22;;;;;;;19.80;10.33;;;;;;;-6.97;81.43;93457.24;1835018;77;21516;-76
2020/12/27 02:44:00;;;;;;;4.20;3.03;;;;;;;-7.86;82.61;93412.89;1782167;80;21266;-75
2020/12/27 02:46:30;;;;;;;6.70;3.97;;;;;;;-7.88;82.13;93419.51;1806312;79;21182;-75
2020/12/27 02:49:03;;;;;;;6.10;3.30;;;;;;;-7.96;82.32;93423.55;1788086;77;21637;-74
2020/12/27 02:51:31;;;;;;;4.60;3.20;;;;;;;-7.97;82.27;93429.09;1779862;79;21554;-75
2020/12/27 02:54:00;;;;;;;4.87;3.13;;;;;;;-8.09;82.15;93419.70;1835219;77;21190;-76
2020/12/27 02:56:29;;;;;;;6.27;3.60;;;;;;;-8.19;82.16;93414.54;1852089;77;21153;-75
2020/12/27 02:58:59;;;;;;;5.27;3.73;;;;;;;-8.31;82.32;93410.17;1824201;77;21653;-75
2020/12/27 03:01:28;;;;;;;6.27;3.47;;;;;;;-8.38;82.96;93409.73;1806976;78;21206;-74
2020/12/27 03:04:00;;;;;;;8.57;4.47;;;;;;;-8.41;82.65;93411.07;1706798;81;21509;-76
2020/12/27 03:06:32;;;;;;;10.53;6.20;;;;;;;-8.46;82.51;93406.36;1767624;81;21656;-76
2020/12/27 03:09:02;;;;;;;8.00;5.47;;;;;;;-8.50;83.41;93400.84;1788820;79;21154;-76
2020/12/27 03:11:38;;;;;;;8.00;4.90;;;;;;;-8.44;83.79;93397.65;1840965;77;21141;-75
2020/12/27 03:14:08;;;;;;;8.90;4.97;;;;;;;-8.37;83.74;93396.23;1792778;78;21171;-74
2020/12/27 03:16:38;;;;;;;17.27;8.87;;;;;;;-8.31;83.63;93393.03;1789523;79;21646;-74
2020/12/27 03:19:08;;;;;;;18.00;9.20;;;;;;;-8.29;83.58;93397.48;1777061;79;22076;-75
2020/12/27 03:21:47;;;;;;;18.47;9.23;;;;;;;-8.26;83.59;93395.61;1810296;79;21660;-75
2020/12/27 03:24:20;;;;;;;18.80;9.83;;;;;;;-8.23;83.67;93399.55;1855374;76;21143;-74
2020/12/27 03:26:48;;;;;;;17.10;9.20;;;;;;;-8.15;83.68;93410.81;1870099;76;21538;-73
2020/12/27 03:29:17;;;;;;;19.63;9.50;;;;;;;-8.15;83.48;93406.86;1823426;76;21104;-74
2020/12/27 03:31:45;;;;;;;26.10;12.00;;;;;;;-8.14;83.36;93417.66;1733636;80;21380;-74
2020/12/27 03:34:15;;;;;;;23.90;11.87;;;;;;;-8.14;83.31;93413.70;1744304;77;21689;-75
2020/12/27 03:36:47;;;;;;;22.30;11.57;;;;;;;-8.19;82.91;93411.12;1865873;76;21140;-74
2020/12/27 03:39:17;;;;;;;28.57;12.93;;;;;;;-8.28;82.65;93408.28;1828396;78;21171;-74
2020/12/27 03:41:47;;;;;;;20.87;12.07;;;;;;;-8.31;82.75;93401.73;1795849;78;21482;-78
2020/12/27 03:44:19;;;;;;;24.10;12.20;;;;;;;-8.31;82.75;93396.98;1757700;80;22074;-76
2020/12/27 03:47:06;;;;;;;23.10;12.07;;;;;;;-8.30;82.92;93390.64;1811244;78;21609;-74
2020/12/27 03:49:36;;;;;;;17.03;8.60;;;;;;;-8.29;82.97;93379.55;1828802;77;21411;-75
2020/12/27 03:52:15;;;;;;;20.93;9.67;;;;;;;-8.31;82.90;93376.66;1834621;76;21100;-73
2020/12/27 03:55:02;;;;;;;26.43;11.70;;;;;;;-8.37;82.64;93375.13;1802766;78;21162;-74
2020/12/27 03:57:44;;;;;;;25.53;11.67;;;;;;;-8.41;82.69;93382.06;1732087;81;21664;-74
2020/12/27 04:00:19;;;;;;;20.77;9.40;;;;;;;-8.44;82.41;93387.10;1793285;79;21204;-75
2020/12/27 04:02:49;;;;;;;10.90;5.23;;;;;;;-8.51;82.58;93386.09;1789324;78;21664;-77
2020/12/27 04:05:18;;;;;;;38.00;14.07;;;;;;;-8.51;82.93;93387.42;1812189;77;21139;-75
2020/12/27 04:07:46;;;;;;;28.90;12.43;;;;;;;-8.49;83.05;93387.94;1841024;76;21231;-77
2020/12/27 04:10:16;;;;;;;22.13;9.37;;;;;;;-8.51;82.46;93389.27;1786586;78;21799;-78
2020/12/27 04:12:46;;;;;;;28.20;11.67;;;;;;;-8.56;82.51;93394.06;1800419;79;21207;-78
2020/12/27 04:15:16;;;;;;;20.27;9.67;;;;;;;-8.55;82.47;93389.04;1801815;78;21147;-75
2020/12/27 04:17:46;;;;;;;10.43;5.60;;;;;;;-8.53;82.52;93390.09;1748150;78;21214;-75
2020/12/27 04:20:17;;;;;;;10.03;5.20;;;;;;;-8.53;82.49;93390.88;1781175;78;21163;-76
2020/12/27 04:22:50;;;;;;;16.60;8.37;;;;;;;-8.54;82.39;93394.56;1800412;79;22224;-76
2020/12/27 04:25:19;;;;;;;27.40;10.90;;;;;;;-8.57;82.29;93392.50;1772217;78;21187;-75
2020/12/27 04:27:47;;;;;;;29.60;11.10;;;;;;;-8.59;82.46;93389.34;1818461;78;21151;-77
2020/12/27 04:30:16;;;;;;;15.07;5.80;;;;;;;-8.56;82.82;93381.66;1760635;79;21165;-76
2020/12/27 04:32:58;;;;;;;14.87;5.33;;;;;;;-8.52;82.43;93382.44;1798534;77;21159;-77
2020/12/27 04:35:28;;;;;;;15.00;5.13;;;;;;;-8.53;82.13;93369.00;1834084;77;21190;-76
2020/12/27 04:37:56;;;;;;;13.17;5.53;;;;;;;-8.57;81.81;93373.50;1856132;77;21114;-77
2020/12/27 04:40:29;;;;;;;7.27;4.20;;;;;;;-8.61;81.76;93375.66;1879624;76;21771;-75
2020/12/27 04:42:58;;;;;;;11.07;5.67;;;;;;;-8.69;81.90;93386.24;1837257;77;21134;-75
2020/12/27 04:45:34;;;;;;;12.03;5.43;;;;;;;-8.73;82.03;93385.76;1806636;77;21174;-78
2020/12/27 04:48:07;;;;;;;57.90;16.93;;;;;;;-8.76;82.53;93387.12;1817465;77;21321;-77
2020/12/27 04:50:40;;;;;;;27.77;10.50;;;;;;;-8.74;82.29;93387.61;1824012;76;21175;-76
2020/12/27 04:53:08;;;;;;;20.90;8.27;;;;;;;-8.76;82.47;93385.80;1845732;77;21546;-77
2020/12/27 04:55:39;;;;;;;15.03;6.57;;;;;;;-8.75;82.56;93376.82;1860341;76;21655;-76
2020/12/27 04:58:18;;;;;;;13.50;6.90;;;;;;;-8.76;82.42;93376.58;1850135;77;21147;-77
2020/12/27 05:00:49;;;;;;;17.13;8.30;;;;;;;-8.75;82.58;93385.27;1781138;78;21194;-77
2020/12/27 05:03:36;;;;;;;17.70;8.03;;;;;;;-8.73;82.70;93378.63;1891946;75;21166;-76
2020/12/27 05:06:04;;;;;;;16.60;8.30;;;;;;;-8.69;82.83;93378.34;1868293;76;21151;-76
2020/12/27 05:08:32;;;;;;;20.20;10.47;;;;;;;-8.64;82.73;93376.99;1781779;77;21606;-76
2020/12/27 05:11:03;;;;;;;29.10;14.43;;;;;;;-8.65;82.65;93385.97;1824146;78;21012;-78
2020/12/27 05:13:32;;;;;;;31.60;16.00;;;;;;;-8.67;82.65;93381.50;1796111;77;21953;-78
2020/12/27 05:16:05;;;;;;;32.70;14.83;;;;;;;-8.70;82.61;93372.03;1785878;78;21175;-75
2020/12/27 05:18:33;;;;;;;35.17;18.53;;;;;;;-8.68;82.80;93385.73;1747037;78;21182;-76
2020/12/27 05:21:02;;;;;;;34.43;17.50;;;;;;;-8.68;82.83;93377.83;1845193;76;21179;-76
2020/12/27 05:23:31;;;;;;;29.10;16.00;;;;;;;-8.65;83.05;93374.61;1797225;78;21175;-76
2020/12/27 05:26:05;;;;;;;29.87;15.23;;;;;;;-8.61;82.91;93375.13;1788612;79;21445;-79
2020/12/27 05:28:47;;;;;;;35.07;14.80;;;;;;;-8.57;82.91;93376.67;1832599;75;21270;-75
2020/12/27 05:31:26;;;;;;;31.10;15.77;;;;;;;-8.58;82.93;93373.23;1878616;75;21181;-76
2020/12/27 05:34:11;;;;;;;33.37;17.30;;;;;;;-8.58;82.90;93381.67;1755502;81;21198;-75
2020/12/27 05:37:14;;;;;;;37.67;18.50;;;;;;;-8.58;82.70;93376.41;1838568;77;26645;-78
2020/12/27 05:39:49;;;;;;;46.00;21.43;;;;;;;-8.62;82.51;93378.80;1811861;77;21205;-75
2020/12/27 05:42:45;;;;;;;48.37;22.70;;;;;;;-8.66;82.32;93378.32;1797445;77;21781;-77
2020/12/27 05:45:22;;;;;;;16.00;8.77;;;;;;;-8.73;82.38;93387.08;1775790;79;21133;-77
2020/12/27 05:47:52;;;;;;;20.03;11.90;;;;;;;-8.77;82.54;93381.56;1814447;78;21610;-76
2020/12/27 05:50:23;;;;;;;21.20;10.50;;;;;;;-8.77;82.31;93384.20;1751881;80;21153;-76
2020/12/27 05:52:52;;;;;;;31.87;12.20;;;;;;;-8.78;82.13;93387.91;1800544;79;21301;-76
2020/12/27 05:55:22;;;;;;;22.57;8.63;;;;;;;-8.83;81.65;93390.06;1756473;79;21327;-76
2020/12/27 05:57:53;;;;;;;15.90;6.87;;;;;;;-8.88;81.44;93386.13;1821251;76;21702;-77
2020/12/27 06:00:24;;;;;;;9.63;4.83;;;;;;;-8.93;81.13;93381.44;1846788;76;21100;-76
2020/12/27 06:02:58;;;;;;;7.63;4.23;;;;;;;-9.01;81.12;93389.94;1851320;75;21420;-76
2020/12/27 06:05:57;;;;;;;7.63;3.50;;;;;;;-9.08;81.33;93387.06;1812040;78;21153;-75
2020/12/27 06:08:47;;;;;;;10.57;4.23;;;;;;;-9.09;81.37;93388.67;1841971;77;21188;-76
2020/12/27 06:11:23;;;;;;;9.53;4.73;;;;;;;-9.12;81.44;93393.95;1781047;78;21230;-77
2020/12/27 06:14:29;;;;;;;15.00;6.93;;;;;;;-9.19;81.36;93397.41;1846807;77;26582;-77
2020/12/27 06:17:15;;;;;;;21.90;10.03;;;;;;;-9.31;81.25;93396.44;1780341;79;21178;-75
2020/12/27 06:20:07;;;;;;;27.67;9.83;;;;;;;-9.42;81.27;93405.45;1774594;79;21686;-75
2020/12/27 06:22:32;;;;;;;;;;;;;;;-9.48;81.42;93400.47;1724284;80;21762;-77
2020/12/27 06:25:20;;;;;;;16.93;7.10;;;;;;;-9.49;81.71;93397.05;1742705;80;20275;-75
2020/12/27 06:27:50;;;;;;;21.80;9.93;;;;;;;-9.46;82.24;93403.63;1743664;80;21203;-75
2020/12/27 06:30:21;;;;;;;15.47;6.77;;;;;;;-9.42;82.50;93393.59;1737651;80;21228;-76
2020/12/27 06:33:03;;;;;;;22.23;10.10;;;;;;;-9.38;82.38;93395.94;1749310;80;21665;-75
2020/12/27 06:35:35;;;;;;;29.87;15.47;;;;;;;-9.32;82.53;93388.81;1729512;82;21028;-76
2020/12/27 06:38:22;;;;;;;32.00;16.10;;;;;;;-9.23;82.53;93390.33;1707568;81;21190;-77
2020/12/27 06:41:10;;;;;;;35.30;15.93;;;;;;;-9.22;82.55;93382.15;1671639;82;21541;-78
2020/12/27 06:43:59;;;;;;;21.27;11.50;;;;;;;-9.26;82.62;93379.80;1779622;78;21308;-76
2020/12/27 06:46:32;;;;;;;34.53;17.20;;;;;;;-9.27;82.67;93380.09;1752589;77;21388;-76
2020/12/27 06:49:14;;;;;;;39.57;22.87;;;;;;;-9.19;82.91;93371.61;1732194;77;21249;-76
2020/12/27 06:51:47;;;;;;;70.03;27.67;;;;;;;-9.09;82.75;93379.45;1764283;77;21278;-76
2020/12/27 06:54:17;;;;;;;57.43;23.70;;;;;;;-9.02;82.00;93381.78;1773916;78;21537;-76
2020/12/27 06:56:47;;;;;;;35.60;17.70;;;;;;;-9.02;81.67;93376.52;1796190;77;21759;-75
2020/12/27 06:59:34;;;;;;;18.20;8.33;;;;;;;-8.97;81.72;93380.42;1731426;81;21490;-77
2020/12/27 07:02:11;;;;;;;10.83;6.70;;;;;;;-8.90;81.52;93375.63;1746816;80;21201;-76
2020/12/27 07:04:38;;;;;;;;;;;;;;;-8.57;82.48;93361.64;1780517;79;21176;-75
2020/12/27 07:07:07;;;;;;;7.47;3.67;;;;;;;-7.73;82.35;93357.30;1772987;79;20302;-76
2020/12/27 07:09:37;;;;;;;15.93;7.80;;;;;;;-7.06;80.40;93364.34;1755459;79;21251;-76
2020/12/27 07:12:09;;;;;;;35.30;19.03;;;;;;;-6.67;78.52;93374.04;1687502;80;21560;-77
2020/12/27 07:14:42;;;;;;;38.87;20.23;;;;;;;-6.10;78.16;93372.56;1759780;80;21425;-77
2020/12/27 07:17:16;;;;;;;38.17;21.37;;;;;;;-5.42;76.43;93375.73;1704036;82;21304;-76
2020/12/27 07:19:44;;;;;;;35.37;17.70;;;;;;;-4.77;75.15;93365.34;1746566;79;21804;-76
2020/12/27 07:22:12;;;;;;;25.53;13.50;;;;;;;-4.41;72.64;93361.28;1758114;78;21306;-77
2020/12/27 07:24:41;;;;;;;27.60;14.93;;;;;;;-4.43;69.38;93364.02;1722749;81;21208;-77
2020/12/27 07:27:11;;;;;;;37.87;20.60;;;;;;;-4.64;69.60;93358.39;1720203;79;21202;-76
2020/12/27 07:29:39;;;;;;;37.27;19.37;;;;;;;-4.80;68.38;93359.30;1826044;76;21226;-77
2020/12/27 07:32:08;;;;;;;39.60;19.57;;;;;;;-4.87;69.16;93349.64;1762053;78;21237;-77
2020/12/27 07:34:38;;;;;;;44.83;23.37;;;;;;;-4.79;68.84;93346.27;1706037;81;21585;-77
2020/12/27 07:37:06;;;;;;;52.43;25.70;;;;;;;-4.66;68.48;93346.77;1771795;79;21188;-77
2020/12/27 07:39:54;;;;;;;50.60;26.30;;;;;;;-4.37;67.43;93347.41;1810558;78;21553;-76
2020/12/27 07:42:34;;;;;;;37.13;19.63;;;;;;;-4.19;66.22;93347.20;1775985;78;21513;-76
2020/12/27 07:45:13;;;;;;;40.10;20.20;;;;;;;-4.17;65.81;93345.59;1819554;77;21389;-78
2020/12/27 07:47:41;;;;;;;38.83;20.57;;;;;;;-4.04;65.94;93343.37;1821159;77;21100;-78
2020/12/27 07:50:15;;;;;;;37.43;18.87;;;;;;;-3.84;66.12;93343.37;1827456;77;21598;-76
2020/12/27 07:53:00;;;;;;;40.60;21.37;;;;;;;-3.75;65.89;93332.80;1822017;77;21681;-76
2020/12/27 07:55:37;;;;;;;35.88;19.87;;;;;;;-3.68;65.05;93333.91;1777829;78;21238;-76
2020/12/27 07:58:06;;;;;;;45.07;24.30;;;;;;;-3.39;64.16;93335.22;1782731;78;21218;-75
2020/12/27 08:00:37;;;;;;;39.80;20.80;;;;;;;-2.99;63.22;93336.47;1784659;78;21181;-75
2020/12/27 08:03:09;;;;;;;31.23;16.57;;;;;;;-2.69;62.69;93338.75;1827040;76;21419;-75
2020/12/27 08:05:40;;;;;;;32.70;18.75;;;;;;;-2.38;62.27;93327.91;1775992;79;21097;-75
2020/12/27 08:08:10;;;;;;;14.73;9.48;;;;;;;-2.11;61.80;93322.74;1781575;78;21249;-74
2020/12/27 08:10:41;;;;;;;28.90;16.37;;;;;;;-1.78;61.82;93318.95;1769368;78;21166;-75
2020/12/27 08:13:10;;;;;;;26.87;16.12;;;;;;;-1.26;61.30;93312.59;1791065;78;21645;-74
2020/12/27 08:15:40;;;;;;;19.85;12.43;;;;;;;-0.83;60.45;93304.83;1790699;78;22390;-74
2020/12/27 08:18:09;;;;;;;9.28;6.22;;;;;;;-0.67;59.01;93307.71;1789043;79;21245;-74
2020/12/27 08:20:48;;;;;;;12.45;8.18;;;;;;;-0.41;58.46;93313.61;1788885;78;21197;-75
2020/12/27 08:23:18;;;;;;;20.37;11.68;;;;;;;-0.19;58.23;93308.98;1776123;79;21167;-75
2020/12/27 08:25:48;;;;;;;17.75;11.03;;;;;;;-0.09;57.09;93309.91;1772131;79;21248;-74
2020/12/27 08:28:16;;;;;;;16.80;11.57;;;;;;;-0.06;55.51;93308.69;1764040;78;21258;-75
2020/12/27 08:30:45;;;;;;;17.07;9.98;;;;;;;-0.03;55.10;93302.69;1792775;78;21569;-74
2020/12/27 08:33:18;;;;;;;18.57;10.78;;;;;;;-0.08;54.70;93301.55;1813115;77;21149;-76
2020/12/27 08:36:13;;;;;;;17.67;9.85;;;;;;;-0.16;55.23;93299.75;1740807;79;21249;-77
2020/12/27 08:38:54;;;;;;;21.12;12.28;;;;;;;-0.11;54.89;93302.79;1737245;80;21199;-77
2020/12/27 08:41:31;;;;;;;17.55;9.10;;;;;;;-0.05;55.71;93307.58;1793477;78;22479;-77
2020/12/27 08:44:29;;;;;;;18.73;10.90;;;;;;;0.20;55.59;93298.27;1775533;79;21195;-76
2020/12/27 08:46:57;;;;;;;12.68;8.03;;;;;;;0.50;55.34;93294.84;1811779;76;21219;-77
2020/12/27 09:54:54;;;;;;;17.87;9.70;;;;;;;-1.94;64.12;93202.00;1891559;74;21114;-76
2020/12/27 09:57:24;;;;;;;26.57;13.83;;;;;;;-1.72;63.52;93196.94;1843236;75;21347;-75
2020/12/27 09:59:53;;;;;;;10.77;5.97;;;;;;;-1.57;62.79;93204.92;1796075;77;21644;-75
2020/12/27 10:02:21;;;;;;;13.83;8.10;;;;;;;-1.44;61.48;93202.55;1803471;77;21543;-76
2020/12/27 10:04:49;;;;;;;12.43;6.53;;;;;;;-1.58;61.74;93203.34;1816255;77;21183;-76
2020/12/27 10:07:17;;;;;;;7.20;5.22;;;;;;;-1.63;62.47;93196.88;1793201;77;21152;-75
2020/12/27 10:09:46;;;;;;;7.40;4.37;;;;;;;-1.64;62.25;93193.44;1869837;76;22081;-75
2020/12/27 10:12:15;;;;;;;9.17;5.60;;;;;;;-1.63;62.27;93182.21;1814700;76;21177;-75
2020/12/27 10:14:43;;;;;;;12.77;7.10;;;;;;;-1.59;63.11;93171.13;1831543;76;21207;-74
2020/12/27 10:17:11;;;;;;;15.23;9.20;;;;;;;-1.38;63.99;93163.91;1842949;75;21673;-75
2020/12/27 10:19:39;;;;;;;13.05;7.83;;;;;;;-1.15;62.96;93157.67;1781612;79;21246;-75
2020/12/27 10:22:08;;;;;;;11.17;6.63;;;;;;;-1.07;61.63;93152.03;1778847;78;21179;-74
2020/12/27 10:24:36;;;;;;;8.80;5.17;;;;;;;-1.14;61.62;93151.78;1779041;77;21282;-76
2020/12/27 10:27:06;;;;;;;11.27;7.17;;;;;;;-1.28;61.54;93153.38;1853231;74;21538;-76
2020/12/27 10:29:34;;;;;;;12.27;7.73;;;;;;;-1.48;61.50;93143.73;1858439;75;21281;-76
2020/12/27 10:32:04;;;;;;;14.27;8.37;;;;;;;-1.67;62.93;93144.75;1831166;76;21124;-76
2020/12/27 10:34:33;;;;;;;12.63;7.83;;;;;;;-1.79;64.02;93124.70;1861525;75;21246;-77
2020/12/27 10:37:02;;;;;;;9.40;6.30;;;;;;;-1.91;64.12;93123.30;1829300;77;21269;-76
2020/12/27 10:39:30;;;;;;;13.17;7.23;;;;;;;-2.02;64.31;93128.22;1863672;75;21146;-76
2020/12/27 10:41:59;;;;;;;11.50;6.43;;;;;;;-2.08;65.39;93128.17;1839581;75;21601;-76
2020/12/27 10:44:27;;;;;;;11.03;5.97;;;;;;;-2.15;65.08;93123.34;1835346;75;21130;-76
2020/12/27 10:46:59;;;;;;;8.70;5.90;;;;;;;-2.21;65.59;93112.11;1861558;75;21254;-76
2020/12/27 10:49:28;;;;;;;7.87;4.73;;;;;;;-2.21;65.18;93107.34;1822389;77;21246;-76
2020/12/27 10:51:56;;;;;;;7.27;3.67;;;;;;;-2.14;65.92;93099.62;1791382;78;21227;-75
2020/12/27 10:54:24;;;;;;;11.37;6.73;;;;;;;-1.94;65.74;93092.73;1835550;75;21700;-76
2020/12/27 10:56:52;;;;;;;11.33;6.40;;;;;;;-1.72;64.54;93085.75;1817676;75;21245;-75
2020/12/27 10:59:20;;;;;;;10.67;6.50;;;;;;;-1.65;64.30;93087.90;1773605;78;22501;-76
2020/12/27 11:01:49;;;;;;;12.03;7.00;;;;;;;-1.65;64.99;93076.46;1785374;78;21260;-76
2020/12/27 11:04:17;;;;;;;9.90;5.90;;;;;;;-1.66;64.95;93068.98;1744509;80;21741;-78
2020/12/27 11:06:45;;;;;;;11.17;6.07;;;;;;;-1.64;66.02;93067.34;1770842;80;21245;-75
2020/12/27 11:09:15;;;;;;;9.50;5.33;;;;;;;-1.58;66.06;93060.16;1791293;78;21693;-76
2020/12/27 11:11:44;;;;;;;10.33;6.57;;;;;;;-1.51;65.88;93062.27;1786862;78;21362;-76
2020/12/27 11:14:12;;;;;;;58.87;29.37;;;;;;;-1.47;65.78;93065.31;1797400;75;21575;-77
2020/12/27 11:16:40;;;;;;;20.07;10.50;;;;;;;-1.44;65.33;93066.52;1855887;75;21720;-77
2020/12/27 11:19:08;;;;;;;11.83;7.47;;;;;;;-1.38;65.72;93065.22;1816257;78;21143;-77
2020/12/27 11:21:39;;;;;;;12.97;7.30;;;;;;;-1.32;65.57;93059.89;1826584;77;21202;-77
2020/12/27 11:24:07;;;;;;;17.87;9.37;;;;;;;-1.22;65.81;93055.48;1820954;76;21628;-77
2020/12/27 11:26:35;;;;;;;19.10;10.17;;;;;;;-1.12;65.15;93046.28;1819343;77;21273;-77
2020/12/27 11:29:03;;;;;;;16.27;8.77;;;;;;;-1.02;65.07;93039.73;1820041;76;21356;-77
2020/12/27 11:31:32;;;;;;;13.58;7.80;;;;;;;-0.93;65.11;93037.75;1828191;77;21239;-76
2020/12/27 11:34:00;;;;;;;19.13;9.33;;;;;;;-0.95;64.75;93023.17;1815152;77;21508;-77
2020/12/27 11:36:28;;;;;;;17.50;8.45;;;;;;;-1.03;64.32;93012.27;1815621;76;21370;-77
2020/12/27 11:38:56;;;;;;;14.93;7.30;;;;;;;-1.10;64.85;93017.92;1844967;75;21554;-76
2020/12/27 11:41:25;;;;;;;19.17;10.13;;;;;;;-1.14;63.86;93020.47;1870981;75;21226;-76
2020/12/27 11:46:26;;;;;;;14.07;6.85;;;;;;;-1.24;63.94;93001.69;1806986;77;21454;-75
2020/12/27 11:48:54;;;;;;;9.23;5.20;;;;;;;-1.30;64.66;93005.66;1824048;75;22634;-75
2020/12/27 11:51:23;;;;;;;12.00;6.60;;;;;;;-1.31;65.47;93006.01;1860235;75;21243;-75
2020/12/27 11:53:53;;;;;;;11.27;6.80;;;;;;;-1.32;64.56;93003.09;1861062;75;21095;-75
2020/12/27 11:56:21;;;;;;;18.53;8.93;;;;;;;-1.36;65.37;93004.31;1899423;74;21297;-76
2020/12/27 11:58:51;;;;;;;20.83;10.20;;;;;;;-1.37;66.03;93001.98;1850925;75;21145;-76
2020/12/27 12:01:19;;;;;;;24.23;12.03;;;;;;;-1.36;66.47;92999.53;1879485;74;22317;-74
2020/12/27 12:03:48;;;;;;;35.67;17.73;;;;;;;-1.32;67.01;92993.20;1834665;74;21866;-74
2020/12/27 12:06:25;;;;;;;54.13;31.53;;;;;;;-1.26;66.68;92990.55;1817384;77;21233;-75
2020/12/27 12:08:54;;;;;;;22.80;12.23;;;;;;;-1.22;66.78;92996.01;1791849;75;21655;-74
2020/12/27 12:11:22;;;;;;;26.00;13.53;;;;;;;-1.22;66.00;93006.68;1815540;77;21261;-74
2020/12/27 12:13:50;;;;;;;25.00;11.83;;;;;;;-1.23;66.10;93001.91;1794312;77;21576;-75
2020/12/27 12:16:20;;;;;;;20.37;10.53;;;;;;;-1.25;66.57;93000.11;1882710;74;22130;-75
2020/12/27 12:18:49;;;;;;;20.00;10.05;;;;;;;-1.25;66.38;93005.45;1834839;74;21156;-75
2020/12/27 12:21:17;;;;;;;12.60;6.83;;;;;;;-1.23;67.16;93003.80;1849155;74;21150;-75
2020/12/27 12:23:46;;;;;;;13.28;6.80;;;;;;;-1.17;67.74;93001.68;1870077;74;21203;-76
2020/12/27 12:26:23;;;;;;;42.57;26.13;;;;;;;-1.08;67.35;92987.70;1850444;75;21258;-76
2020/12/27 12:28:51;;;;;;;25.92;17.25;;;;;;;-1.01;67.41;92988.70;1819648;77;21193;-76
2020/12/27 12:31:19;;;;;;;20.65;11.35;;;;;;;-0.94;66.88;92972.14;1876873;74;21193;-76
2020/12/27 12:33:48;;;;;;;29.23;15.18;;;;;;;-0.91;66.37;92969.34;1864951;74;21282;-76
2020/12/27 12:36:17;;;;;;;24.93;14.20;;;;;;;-0.93;67.41;92966.25;1870301;74;21242;-76
2020/12/27 12:38:45;;;;;;;66.30;40.60;;;;;;;-1.01;67.74;92962.58;1860718;75;21392;-75
2020/12/27 12:43:44;;;;;;;32.90;18.70;;;;;;;-1.16;68.00;92958.67;1873594;75;21511;-76
2020/12/27 12:46:13;;;;;;;35.00;20.80;;;;;;;-1.18;68.22;92953.44;1811655;75;21274;-76
2020/12/27 12:48:41;;;;;;;56.33;33.33;;;;;;;-1.19;68.56;92951.89;1796666;78;21506;-75
2020/12/27 12:51:09;;;;;;;35.58;20.80;;;;;;;-1.20;68.94;92947.11;1835354;77;21198;-76
2020/12/27 12:53:38;;;;;;;36.57;20.17;;;;;;;-1.25;68.92;92936.64;1794995;78;21178;-77
2020/12/27 12:56:11;;;;;;;24.63;13.20;;;;;;;-1.27;69.32;92938.32;1783974;78;21262;-77
2020/12/27 12:58:40;;;;;;;16.97;10.13;;;;;;;-1.32;70.03;92933.19;1817232;77;21235;-77
2020/12/27 13:01:10;;;;;;;12.85;8.40;;;;;;;-1.34;70.12;92934.64;1790029;78;21186;-76
2020/12/27 13:03:42;;;;;;;9.40;5.97;;;;;;;-1.35;70.32;92934.43;1773402;78;22510;-76
2020/12/27 13:06:12;;;;;;;8.35;4.53;;;;;;;-1.36;70.50;92924.29;1794645;77;21353;-76
2020/12/27 13:08:41;;;;;;;7.47;5.13;;;;;;;-1.38;70.74;92925.75;1819527;77;21158;-76
2020/12/27 13:11:10;;;;;;;7.10;4.93;;;;;;;-1.38;70.87;92923.08;1770115;75;21159;-76
2020/12/27 13:13:38;;;;;;;6.90;4.67;;;;;;;-1.32;70.98;92918.52;1772483;78;21237;-77
2020/12/27 13:16:07;;;;;;;8.18;4.95;;;;;;;-1.27;70.35;92907.64;1824788;76;21740;-77
2020/12/27 13:18:35;;;;;;;10.33;5.63;;;;;;;-1.29;70.58;92899.18;1850303;75;21467;-77
2020/12/27 13:21:05;;;;;;;11.60;7.60;;;;;;;-1.25;70.69;92889.39;1803768;76;21185;-77
2020/12/27 13:23:34;;;;;;;15.97;9.87;;;;;;;-1.22;70.78;92891.41;1836194;76;21111;-76
2020/12/27 13:26:02;;;;;;;13.27;8.77;;;;;;;-1.20;71.04;92893.75;1787140;78;21621;-77
2020/12/27 13:28:32;;;;;;;22.27;11.95;;;;;;;-1.22;71.12;92890.63;1864959;74;22337;-77
2020/12/27 13:31:00;;;;;;;26.87;16.23;;;;;;;-1.25;71.28;92888.06;1841712;74;21309;-77
2020/12/27 13:33:28;;;;;;;68.50;41.77;;;;;;;-1.31;71.68;92881.41;1815265;77;21239;-77
2020/12/27 13:35:57;;;;;;;55.12;33.90;;;;;;;-1.36;71.95;92872.84;1827858;77;21127;-77
2020/12/27 13:38:25;;;;;;;28.97;16.27;;;;;;;-1.41;72.16;92876.51;1812309;77;21688;-77
2020/12/27 13:40:53;;;;;;;24.90;13.97;;;;;;;-1.40;72.66;92881.28;1872326;74;22487;-75
2020/12/27 13:43:21;;;;;;;28.70;16.07;;;;;;;-1.41;72.79;92879.17;1814046;76;21221;-77
2020/12/27 13:45:50;;;;;;;36.03;21.33;;;;;;;-1.43;72.88;92880.05;1825981;76;21226;-75
2020/12/27 13:48:18;;;;;;;36.50;20.97;;;;;;;-1.48;72.87;92877.05;1797998;78;21554;-76
2020/12/27 13:50:46;;;;;;;43.87;27.20;;;;;;;-1.51;72.62;92877.72;1808046;75;21655;-76
2020/12/27 13:53:15;;;;;;;25.43;15.17;;;;;;;-1.52;72.84;92869.50;1771224;78;21262;-77
2020/12/27 13:55:43;;;;;;;57.67;35.77;;;;;;;-1.52;72.29;92868.16;1796960;77;21282;-76
2020/12/27 13:58:11;;;;;;;52.53;31.53;;;;;;;-1.56;72.50;92854.50;1821100;75;21209;-76
2020/12/27 14:00:40;;;;;;;55.13;33.93;;;;;;;-1.63;72.52;92859.05;1829961;76;21538;-76
2020/12/27 14:03:08;;;;;;;43.33;25.67;;;;;;;-1.69;72.75;92860.39;1818109;78;21379;-76
2020/12/27 14:05:36;;;;;;;44.17;26.17;;;;;;;-1.73;73.00;92866.94;1820615;77;21628;-76
2020/12/27 14:08:04;;;;;;;46.83;28.67;;;;;;;-1.79;73.17;92864.81;1859562;75;21258;-76